KAJZ

Blake Field Airport

Delta, Colorado, USA
METAR KAJZ 241455Z AUTO 27015KT 10SM CLR 25/M02 A3001 RMK AO2 T02501022
Observed Flight Rules
Jun-24 @ 14:55 UTC (6 minutes ago) Visual Flight Rules
Wind Visibility Clouds
270° at 15 knots 10 miles
  • Clear skies
Temperatures Readings
Current 25°C / 77°F
Dewpoint -2°C / 28°F
Humidity 17%
Altimeter 30.01" Hg
Pressure 1016 hPa
Elevation 1583
METAR KAJZ 241455Z AUTO 27015KT 10SM CLR 25/M02 A3001 RMK AO2 T02501022
Observed Flight Rules
Jun-24 @ 14:55 UTC
(6 minutes ago)
VFR
Wind Visibility
270° at 15 knots 10 miles
Clouds
  • Clear skies
Temperature Dewpoint
25°C / 77°F -2°C / 28°F
Humidity Altimeter Pressure
17% 30.01" Hg 1016 hPa